sensor_id;sensor_type;location;lat;lon;timestamp;pressure;altitude;pressure_sealevel;temperature;humidity
14204;BME280;7185;51.854;6.622;2023-12-14T00:00:36;100465.59;;;12.72;68.75
14204;BME280;7185;51.854;6.622;2023-12-14T00:03:07;100470.81;;;12.74;68.86
14204;BME280;7185;51.854;6.622;2023-12-14T00:05:39;100476.13;;;12.41;69.11
14204;BME280;7185;51.854;6.622;2023-12-14T00:08:11;100482.00;;;12.51;68.63
14204;BME280;7185;51.854;6.622;2023-12-14T00:10:42;100487.81;;;12.62;68.86
14204;BME280;7185;51.854;6.622;2023-12-14T00:13:14;100497.97;;;12.74;68.62
14204;BME280;7185;51.854;6.622;2023-12-14T00:15:47;100499.41;;;12.55;68.59
14204;BME280;7185;51.854;6.622;2023-12-14T00:18:20;100495.28;;;12.78;68.12
14204;BME280;7185;51.854;6.622;2023-12-14T00:20:52;100508.38;;;12.79;67.83
14204;BME280;7185;51.854;6.622;2023-12-14T00:23:24;100517.44;;;12.69;68.13
14204;BME280;7185;51.854;6.622;2023-12-14T00:25:56;100522.66;;;12.70;67.53
14204;BME280;7185;51.854;6.622;2023-12-14T00:28:28;100525.66;;;12.58;68.34
14204;BME280;7185;51.854;6.622;2023-12-14T00:31:01;100528.72;;;12.72;67.88
14204;BME280;7185;51.854;6.622;2023-12-14T00:33:32;100524.94;;;12.83;68.07
14204;BME280;7185;51.854;6.622;2023-12-14T00:36:04;100535.53;;;12.80;67.62
14204;BME280;7185;51.854;6.622;2023-12-14T00:38:36;100545.13;;;12.51;68.49
14204;BME280;7185;51.854;6.622;2023-12-14T00:41:10;100543.28;;;12.53;67.89
14204;BME280;7185;51.854;6.622;2023-12-14T00:43:41;100543.06;;;12.62;67.63
14204;BME280;7185;51.854;6.622;2023-12-14T00:46:14;100551.66;;;12.67;67.89
14204;BME280;7185;51.854;6.622;2023-12-14T00:48:46;100557.50;;;12.46;68.38
14204;BME280;7185;51.854;6.622;2023-12-14T00:51:18;100556.84;;;12.39;68.35
14204;BME280;7185;51.854;6.622;2023-12-14T00:53:49;100564.81;;;12.00;69.23
14204;BME280;7185;51.854;6.622;2023-12-14T00:56:21;100566.06;;;12.21;68.55
14204;BME280;7185;51.854;6.622;2023-12-14T00:58:53;100569.94;;;12.40;68.49
14204;BME280;7185;51.854;6.622;2023-12-14T01:01:34;100574.44;;;12.35;68.57
14204;BME280;7185;51.854;6.622;2023-12-14T01:04:06;100580.91;;;12.56;68.05
14204;BME280;7185;51.854;6.622;2023-12-14T01:06:37;100588.09;;;12.50;68.27
14204;BME280;7185;51.854;6.622;2023-12-14T01:09:09;100597.13;;;12.39;68.05
14204;BME280;7185;51.854;6.622;2023-12-14T01:11:41;100597.78;;;12.48;67.93
14204;BME280;7185;51.854;6.622;2023-12-14T01:14:12;100601.38;;;12.45;67.95
14204;BME280;7185;51.854;6.622;2023-12-14T01:16:45;100605.53;;;12.19;68.16
14204;BME280;7185;51.854;6.622;2023-12-14T01:19:20;100612.16;;;12.34;68.12
14204;BME280;7185;51.854;6.622;2023-12-14T01:21:51;100619.16;;;12.34;68.04
14204;BME280;7185;51.854;6.622;2023-12-14T01:24:23;100627.19;;;12.29;68.15
14204;BME280;7185;51.854;6.622;2023-12-14T01:26:55;100638.13;;;12.10;68.31
14204;BME280;7185;51.854;6.622;2023-12-14T01:29:26;100644.03;;;12.22;68.16
14204;BME280;7185;51.854;6.622;2023-12-14T01:31:59;100644.72;;;12.28;68.44
14204;BME280;7185;51.854;6.622;2023-12-14T01:34:31;100652.38;;;12.38;67.73
14204;BME280;7185;51.854;6.622;2023-12-14T01:37:03;100661.50;;;12.23;67.93
14204;BME280;7185;51.854;6.622;2023-12-14T01:39:35;100670.06;;;12.31;67.87
14204;BME280;7185;51.854;6.622;2023-12-14T01:42:06;100667.88;;;12.13;68.17
14204;BME280;7185;51.854;6.622;2023-12-14T01:44:38;100674.44;;;11.93;68.45
14204;BME280;7185;51.854;6.622;2023-12-14T01:47:11;100677.31;;;11.80;68.92
14204;BME280;7185;51.854;6.622;2023-12-14T01:49:43;100686.63;;;11.97;68.44
14204;BME280;7185;51.854;6.622;2023-12-14T01:52:15;100681.72;;;11.80;68.75
14204;BME280;7185;51.854;6.622;2023-12-14T01:54:47;100688.38;;;11.98;68.61
14204;BME280;7185;51.854;6.622;2023-12-14T01:57:18;100687.31;;;12.05;68.44
14204;BME280;7185;51.854;6.622;2023-12-14T01:59:53;100692.91;;;12.29;67.62
14204;BME280;7185;51.854;6.622;2023-12-14T02:02:27;100700.91;;;12.24;67.48
14204;BME280;7185;51.854;6.622;2023-12-14T02:04:58;100707.44;;;12.06;67.84
14204;BME280;7185;51.854;6.622;2023-12-14T02:07:30;100712.41;;;12.19;67.99
14204;BME280;7185;51.854;6.622;2023-12-14T02:10:02;100707.03;;;12.25;67.57
14204;BME280;7185;51.854;6.622;2023-12-14T02:12:33;100714.63;;;11.98;68.17
14204;BME280;7185;51.854;6.622;2023-12-14T02:15:06;100710.69;;;12.18;67.62
14204;BME280;7185;51.854;6.622;2023-12-14T02:17:40;100713.69;;;12.01;67.81
14204;BME280;7185;51.854;6.622;2023-12-14T02:20:12;100725.09;;;12.01;67.79
14204;BME280;7185;51.854;6.622;2023-12-14T02:22:51;100733.66;;;12.09;67.11
14204;BME280;7185;51.854;6.622;2023-12-14T02:25:24;100729.94;;;12.20;66.78
14204;BME280;7185;51.854;6.622;2023-12-14T02:27:56;100739.66;;;12.16;67.08
14204;BME280;7185;51.854;6.622;2023-12-14T02:30:27;100744.09;;;12.13;67.55
14204;BME280;7185;51.854;6.622;2023-12-14T02:32:59;100749.06;;;12.25;66.53
14204;BME280;7185;51.854;6.622;2023-12-14T02:35:31;100758.88;;;12.18;66.78
14204;BME280;7185;51.854;6.622;2023-12-14T02:38:04;100756.41;;;12.12;67.21
14204;BME280;7185;51.854;6.622;2023-12-14T02:40:36;100758.97;;;12.14;66.97
14204;BME280;7185;51.854;6.622;2023-12-14T02:43:07;100763.25;;;12.18;67.03
14204;BME280;7185;51.854;6.622;2023-12-14T02:45:39;100762.78;;;12.00;66.96
14204;BME280;7185;51.854;6.622;2023-12-14T02:48:11;100768.09;;;11.97;67.55
14204;BME280;7185;51.854;6.622;2023-12-14T02:50:42;100773.81;;;12.16;66.83
14204;BME280;7185;51.854;6.622;2023-12-14T02:53:15;100772.41;;;12.01;67.13
14204;BME280;7185;51.854;6.622;2023-12-14T02:55:47;100772.25;;;12.07;67.26
14204;BME280;7185;51.854;6.622;2023-12-14T02:58:19;100785.22;;;12.15;67.02
14204;BME280;7185;51.854;6.622;2023-12-14T03:00:50;100791.69;;;11.99;67.11
14204;BME280;7185;51.854;6.622;2023-12-14T03:03:22;100786.72;;;11.85;67.24
14204;BME280;7185;51.854;6.622;2023-12-14T03:05:54;100783.38;;;11.76;67.58
14204;BME280;7185;51.854;6.622;2023-12-14T03:08:27;100797.53;;;11.69;67.94
14204;BME280;7185;51.854;6.622;2023-12-14T03:10:59;100795.47;;;11.84;67.46
14204;BME280;7185;51.854;6.622;2023-12-14T03:13:30;100796.25;;;11.90;67.43
14204;BME280;7185;51.854;6.622;2023-12-14T03:16:02;100804.00;;;11.95;67.38
14204;BME280;7185;51.854;6.622;2023-12-14T03:18:34;100811.81;;;12.00;67.07
14204;BME280;7185;51.854;6.622;2023-12-14T03:21:06;100804.47;;;11.73;67.59
14204;BME280;7185;51.854;6.622;2023-12-14T03:23:39;100810.44;;;11.80;67.13
14204;BME280;7185;51.854;6.622;2023-12-14T03:26:10;100818.28;;;11.83;67.12
14204;BME280;7185;51.854;6.622;2023-12-14T03:28:42;100833.28;;;11.76;67.35
14204;BME280;7185;51.854;6.622;2023-12-14T03:31:14;100832.22;;;11.87;67.17
14204;BME280;7185;51.854;6.622;2023-12-14T03:33:46;100848.31;;;11.68;67.68
14204;BME280;7185;51.854;6.622;2023-12-14T03:36:17;100852.84;;;11.60;67.57
14204;BME280;7185;51.854;6.622;2023-12-14T03:38:50;100849.94;;;11.75;67.19
14204;BME280;7185;51.854;6.622;2023-12-14T03:41:22;100849.28;;;11.64;67.69
14204;BME280;7185;51.854;6.622;2023-12-14T03:43:54;100844.69;;;11.75;67.43
14204;BME280;7185;51.854;6.622;2023-12-14T03:46:25;100848.22;;;11.73;67.33
14204;BME280;7185;51.854;6.622;2023-12-14T03:48:57;100855.34;;;11.68;67.32
14204;BME280;7185;51.854;6.622;2023-12-14T03:51:29;100859.91;;;11.58;67.66
14204;BME280;7185;51.854;6.622;2023-12-14T03:54:02;100874.81;;;11.56;67.40
14204;BME280;7185;51.854;6.622;2023-12-14T03:56:34;100874.63;;;11.67;67.29
14204;BME280;7185;51.854;6.622;2023-12-14T03:59:05;100873.13;;;11.53;67.99
14204;BME280;7185;51.854;6.622;2023-12-14T04:01:37;100883.69;;;11.48;67.89
14204;BME280;7185;51.854;6.622;2023-12-14T04:04:11;100890.09;;;11.34;67.74
14204;BME280;7185;51.854;6.622;2023-12-14T04:06:42;100887.91;;;11.57;67.21
14204;BME280;7185;51.854;6.622;2023-12-14T04:09:15;100899.41;;;11.52;67.95
14204;BME280;7185;51.854;6.622;2023-12-14T04:11:47;100902.66;;;11.64;67.75
14204;BME280;7185;51.854;6.622;2023-12-14T04:14:19;100900.22;;;11.54;67.56
14204;BME280;7185;51.854;6.622;2023-12-14T04:16:50;100897.78;;;11.44;67.46
14204;BME280;7185;51.854;6.622;2023-12-14T04:19:22;100901.75;;;11.15;68.17
14204;BME280;7185;51.854;6.622;2023-12-14T04:21:54;100907.34;;;11.47;67.71
14204;BME280;7185;51.854;6.622;2023-12-14T04:24:27;100915.06;;;11.56;67.59
14204;BME280;7185;51.854;6.622;2023-12-14T04:26:58;100915.19;;;11.48;67.39
14204;BME280;7185;51.854;6.622;2023-12-14T04:29:30;100909.91;;;11.52;67.27
14204;BME280;7185;51.854;6.622;2023-12-14T04:32:02;100918.81;;;11.41;67.60
14204;BME280;7185;51.854;6.622;2023-12-14T04:34:34;100919.38;;;11.60;66.73
14204;BME280;7185;51.854;6.622;2023-12-14T04:37:05;100923.31;;;11.35;66.48
14204;BME280;7185;51.854;6.622;2023-12-14T04:39:39;100935.44;;;11.42;67.02
14204;BME280;7185;51.854;6.622;2023-12-14T04:42:11;100932.84;;;11.40;67.27
14204;BME280;7185;51.854;6.622;2023-12-14T04:44:43;100929.09;;;11.54;66.89
14204;BME280;7185;51.854;6.622;2023-12-14T04:47:14;100940.31;;;11.65;66.70
14204;BME280;7185;51.854;6.622;2023-12-14T04:49:46;100945.38;;;11.74;65.96
14204;BME280;7185;51.854;6.622;2023-12-14T04:52:18;100948.97;;;11.70;66.21
14204;BME280;7185;51.854;6.622;2023-12-14T04:54:51;100946.38;;;11.67;66.67
14204;BME280;7185;51.854;6.622;2023-12-14T04:57:25;100950.53;;;11.29;66.91
14204;BME280;7185;51.854;6.622;2023-12-14T04:59:56;100951.63;;;11.67;66.42
14204;BME280;7185;51.854;6.622;2023-12-14T05:02:32;100959.91;;;11.44;66.83
14204;BME280;7185;51.854;6.622;2023-12-14T05:05:04;100952.63;;;11.61;66.48
14204;BME280;7185;51.854;6.622;2023-12-14T05:07:36;100954.50;;;11.53;67.14
14204;BME280;7185;51.854;6.622;2023-12-14T05:10:09;100958.84;;;11.56;66.87
14204;BME280;7185;51.854;6.622;2023-12-14T05:12:41;100958.81;;;11.57;66.54
14204;BME280;7185;51.854;6.622;2023-12-14T05:15:13;100963.03;;;11.68;65.95
14204;BME280;7185;51.854;6.622;2023-12-14T05:17:45;100967.63;;;11.55;66.17
14204;BME280;7185;51.854;6.622;2023-12-14T05:20:17;100971.56;;;11.79;65.84
14204;BME280;7185;51.854;6.622;2023-12-14T05:22:48;100977.03;;;11.68;65.85
14204;BME280;7185;51.854;6.622;2023-12-14T05:25:21;100980.88;;;11.47;66.24
14204;BME280;7185;51.854;6.622;2023-12-14T05:27:53;100984.84;;;11.71;65.81
14204;BME280;7185;51.854;6.622;2023-12-14T05:30:25;100995.41;;;11.68;65.85
14204;BME280;7185;51.854;6.622;2023-12-14T05:32:56;101005.09;;;11.64;66.12
14204;BME280;7185;51.854;6.622;2023-12-14T05:35:28;101008.63;;;11.62;66.26
14204;BME280;7185;51.854;6.622;2023-12-14T05:38:00;101022.66;;;11.62;66.11
14204;BME280;7185;51.854;6.622;2023-12-14T05:40:33;101027.13;;;11.56;66.02
14204;BME280;7185;51.854;6.622;2023-12-14T05:43:05;101033.19;;;11.59;66.12
14204;BME280;7185;51.854;6.622;2023-12-14T05:45:37;101036.78;;;11.55;65.92
14204;BME280;7185;51.854;6.622;2023-12-14T05:48:08;101039.31;;;11.60;65.97
14204;BME280;7185;51.854;6.622;2023-12-14T05:50:40;101039.28;;;11.63;65.70
14204;BME280;7185;51.854;6.622;2023-12-14T05:53:12;101051.72;;;11.52;65.58
14204;BME280;7185;51.854;6.622;2023-12-14T05:55:45;101065.78;;;11.46;65.97
14204;BME280;7185;51.854;6.622;2023-12-14T05:58:17;101063.09;;;11.49;66.35
14204;BME280;7185;51.854;6.622;2023-12-14T06:00:49;101063.91;;;11.53;66.01
14204;BME280;7185;51.854;6.622;2023-12-14T06:03:20;101071.88;;;11.48;65.99
14204;BME280;7185;51.854;6.622;2023-12-14T06:05:52;101080.50;;;11.58;66.11
14204;BME280;7185;51.854;6.622;2023-12-14T06:08:24;101082.25;;;11.57;66.05
14204;BME280;7185;51.854;6.622;2023-12-14T06:10:57;101090.19;;;11.53;65.95
14204;BME280;7185;51.854;6.622;2023-12-14T06:13:28;101098.19;;;11.45;66.04
14204;BME280;7185;51.854;6.622;2023-12-14T06:16:00;101097.41;;;11.38;66.30
14204;BME280;7185;51.854;6.622;2023-12-14T06:18:32;101102.44;;;11.54;65.81
14204;BME280;7185;51.854;6.622;2023-12-14T06:21:04;101106.03;;;11.46;65.83
14204;BME280;7185;51.854;6.622;2023-12-14T06:23:36;101115.56;;;11.54;65.77
14204;BME280;7185;51.854;6.622;2023-12-14T06:26:18;101123.41;;;11.57;65.86
14204;BME280;7185;51.854;6.622;2023-12-14T06:28:50;101133.94;;;11.54;65.77
14204;BME280;7185;51.854;6.622;2023-12-14T06:31:21;101133.03;;;11.58;65.91
14204;BME280;7185;51.854;6.622;2023-12-14T06:33:53;101137.63;;;11.40;66.06
14204;BME280;7185;51.854;6.622;2023-12-14T06:36:25;101146.38;;;11.39;66.42
14204;BME280;7185;51.854;6.622;2023-12-14T06:39:01;101155.09;;;11.44;65.96
14204;BME280;7185;51.854;6.622;2023-12-14T06:41:34;101152.56;;;11.35;65.98
14204;BME280;7185;51.854;6.622;2023-12-14T06:44:06;101160.44;;;11.38;65.94
14204;BME280;7185;51.854;6.622;2023-12-14T06:46:39;101166.53;;;11.39;65.63
14204;BME280;7185;51.854;6.622;2023-12-14T06:49:11;101173.47;;;11.43;65.96
14204;BME280;7185;51.854;6.622;2023-12-14T06:51:43;101174.22;;;11.53;65.79
14204;BME280;7185;51.854;6.622;2023-12-14T06:54:16;101182.16;;;11.50;66.01
14204;BME280;7185;51.854;6.622;2023-12-14T06:56:49;101179.59;;;11.43;65.69
14204;BME280;7185;51.854;6.622;2023-12-14T06:59:21;101181.28;;;11.47;65.70
14204;BME280;7185;51.854;6.622;2023-12-14T07:01:52;101180.72;;;11.24;66.11
14204;BME280;7185;51.854;6.622;2023-12-14T07:04:24;101173.84;;;11.12;66.19
14204;BME280;7185;51.854;6.622;2023-12-14T07:06:56;101186.81;;;11.26;66.23
14204;BME280;7185;51.854;6.622;2023-12-14T07:09:27;101199.84;;;11.32;66.14
14204;BME280;7185;51.854;6.622;2023-12-14T07:12:01;101193.78;;;11.30;66.16
14204;BME280;7185;51.854;6.622;2023-12-14T07:14:33;101205.16;;;11.29;66.26
14204;BME280;7185;51.854;6.622;2023-12-14T07:17:05;101204.19;;;11.36;66.04
14204;BME280;7185;51.854;6.622;2023-12-14T07:19:37;101205.00;;;11.41;65.85
14204;BME280;7185;51.854;6.622;2023-12-14T07:22:08;101214.56;;;11.45;65.84
14204;BME280;7185;51.854;6.622;2023-12-14T07:24:40;101201.59;;;11.33;65.86
14204;BME280;7185;51.854;6.622;2023-12-14T07:27:13;101209.41;;;11.38;65.77
14204;BME280;7185;51.854;6.622;2023-12-14T07:29:45;101216.38;;;11.40;65.51
14204;BME280;7185;51.854;6.622;2023-12-14T07:32:16;101219.22;;;11.22;65.83
14204;BME280;7185;51.854;6.622;2023-12-14T07:34:48;101228.00;;;11.19;66.21
14204;BME280;7185;51.854;6.622;2023-12-14T07:37:20;101218.31;;;11.26;65.94
14204;BME280;7185;51.854;6.622;2023-12-14T07:39:51;101224.44;;;11.26;66.15
14204;BME280;7185;51.854;6.622;2023-12-14T07:42:24;101237.63;;;11.19;66.13
14204;BME280;7185;51.854;6.622;2023-12-14T07:44:56;101236.66;;;11.29;66.38
14204;BME280;7185;51.854;6.622;2023-12-14T07:47:27;101247.25;;;11.20;66.27
14204;BME280;7185;51.854;6.622;2023-12-14T07:49:59;101262.09;;;11.24;66.41
14204;BME280;7185;51.854;6.622;2023-12-14T07:52:31;101268.13;;;11.30;66.30
14204;BME280;7185;51.854;6.622;2023-12-14T07:55:05;101269.06;;;11.26;65.99
14204;BME280;7185;51.854;6.622;2023-12-14T07:57:38;101274.28;;;11.28;66.18
14204;BME280;7185;51.854;6.622;2023-12-14T08:00:11;101279.56;;;11.25;65.91
14204;BME280;7185;51.854;6.622;2023-12-14T08:02:43;101285.66;;;11.28;66.03
14204;BME280;7185;51.854;6.622;2023-12-14T08:05:14;101297.97;;;11.22;65.88
14204;BME280;7185;51.854;6.622;2023-12-14T08:07:46;101305.94;;;11.12;66.14
14204;BME280;7185;51.854;6.622;2023-12-14T08:10:18;101314.63;;;11.18;66.29
14204;BME280;7185;51.854;6.622;2023-12-14T08:12:52;101319.97;;;11.07;66.43
14204;BME280;7185;51.854;6.622;2023-12-14T08:15:23;101333.94;;;11.12;66.66
14204;BME280;7185;51.854;6.622;2023-12-14T08:17:55;101336.47;;;11.23;66.28
14204;BME280;7185;51.854;6.622;2023-12-14T08:20:27;101341.81;;;11.10;66.39
14204;BME280;7185;51.854;6.622;2023-12-14T08:22:59;101348.75;;;11.18;66.63
14204;BME280;7185;51.854;6.622;2023-12-14T08:25:31;101346.94;;;11.26;66.45
14204;BME280;7185;51.854;6.622;2023-12-14T08:28:04;101358.31;;;11.25;66.67
14204;BME280;7185;51.854;6.622;2023-12-14T08:30:36;101360.13;;;11.20;66.90
14204;BME280;7185;51.854;6.622;2023-12-14T08:33:09;101357.53;;;11.15;66.71
14204;BME280;7185;51.854;6.622;2023-12-14T08:35:41;101363.53;;;11.31;66.08
14204;BME280;7185;51.854;6.622;2023-12-14T08:38:12;101378.41;;;11.29;66.24
14204;BME280;7185;51.854;6.622;2023-12-14T08:40:44;101388.09;;;11.24;66.38
14204;BME280;7185;51.854;6.622;2023-12-14T08:43:17;101388.81;;;11.40;66.05
14204;BME280;7185;51.854;6.622;2023-12-14T08:45:49;101382.88;;;11.19;66.55
14204;BME280;7185;51.854;6.622;2023-12-14T08:48:21;101391.59;;;11.20;66.78
14204;BME280;7185;51.854;6.622;2023-12-14T08:50:53;101390.66;;;11.28;66.43
14204;BME280;7185;51.854;6.622;2023-12-14T08:53:25;101402.97;;;11.22;66.46
14204;BME280;7185;51.854;6.622;2023-12-14T08:55:57;101398.59;;;11.24;66.52
14204;BME280;7185;51.854;6.622;2023-12-14T08:58:30;101409.09;;;11.21;66.71
14204;BME280;7185;51.854;6.622;2023-12-14T09:01:02;101412.56;;;11.26;66.40
14204;BME280;7185;51.854;6.622;2023-12-14T09:03:34;101410.13;;;11.03;66.50
14204;BME280;7185;51.854;6.622;2023-12-14T09:06:06;101413.56;;;11.09;66.73
14204;BME280;7185;51.854;6.622;2023-12-14T09:08:40;101409.09;;;11.24;66.33
14204;BME280;7185;51.854;6.622;2023-12-14T09:11:15;101414.34;;;11.22;66.46
14204;BME280;7185;51.854;6.622;2023-12-14T09:13:48;101427.53;;;11.13;66.74
14204;BME280;7185;51.854;6.622;2023-12-14T09:16:21;101428.41;;;11.16;66.67
14204;BME280;7185;51.854;6.622;2023-12-14T09:18:52;101423.97;;;11.19;66.44
14204;BME280;7185;51.854;6.622;2023-12-14T09:21:24;101424.19;;;10.92;66.34
14204;BME280;7185;51.854;6.622;2023-12-14T09:23:56;101425.75;;;11.15;66.35
14204;BME280;7185;51.854;6.622;2023-12-14T09:26:29;101431.84;;;11.22;66.31
14204;BME280;7185;51.854;6.622;2023-12-14T09:29:02;101430.97;;;11.23;66.04
14204;BME280;7185;51.854;6.622;2023-12-14T09:31:34;101437.06;;;11.25;66.67
14204;BME280;7185;51.854;6.622;2023-12-14T09:34:05;101437.09;;;11.22;66.43
14204;BME280;7185;51.854;6.622;2023-12-14T09:36:37;101430.00;;;11.36;66.40
14204;BME280;7185;51.854;6.622;2023-12-14T09:39:09;101436.00;;;11.47;66.23
14204;BME280;7185;51.854;6.622;2023-12-14T09:41:41;101444.06;;;11.29;66.36
14204;BME280;7185;51.854;6.622;2023-12-14T09:44:14;101449.16;;;11.46;65.99
14204;BME280;7185;51.854;6.622;2023-12-14T09:46:46;101451.84;;;11.40;66.36
14204;BME280;7185;51.854;6.622;2023-12-14T09:49:20;101464.13;;;11.35;65.75
14204;BME280;7185;51.854;6.622;2023-12-14T09:51:54;101475.44;;;11.41;66.10
14204;BME280;7185;51.854;6.622;2023-12-14T09:54:26;101470.97;;;11.53;65.78
14204;BME280;7185;51.854;6.622;2023-12-14T09:56:58;101477.16;;;11.45;65.56
14204;BME280;7185;51.854;6.622;2023-12-14T09:59:31;101487.63;;;11.50;66.05
14204;BME280;7185;51.854;6.622;2023-12-14T10:02:10;101501.66;;;11.47;65.84
14204;BME280;7185;51.854;6.622;2023-12-14T10:04:43;101501.69;;;11.44;65.70
14204;BME280;7185;51.854;6.622;2023-12-14T10:07:14;101509.75;;;11.18;65.95
14204;BME280;7185;51.854;6.622;2023-12-14T10:09:47;101507.94;;;11.26;66.10
14204;BME280;7185;51.854;6.622;2023-12-14T10:12:19;101507.97;;;11.19;65.83
14204;BME280;7185;51.854;6.622;2023-12-14T10:15:01;101516.72;;;11.21;66.16
14204;BME280;7185;51.854;6.622;2023-12-14T10:17:36;101514.06;;;11.27;65.76
14204;BME280;7185;51.854;6.622;2023-12-14T10:20:11;101520.22;;;11.20;65.55
14204;BME280;7185;51.854;6.622;2023-12-14T10:22:45;101528.94;;;11.26;65.82
14204;BME280;7185;51.854;6.622;2023-12-14T10:25:18;101528.09;;;11.20;65.67
14204;BME280;7185;51.854;6.622;2023-12-14T10:27:51;101532.38;;;11.33;64.88
14204;BME280;7185;51.854;6.622;2023-12-14T10:30:24;101534.97;;;11.42;65.16
14204;BME280;7185;51.854;6.622;2023-12-14T10:32:57;101540.31;;;11.30;64.73
14204;BME280;7185;51.854;6.622;2023-12-14T10:35:29;101535.03;;;11.28;64.59
14204;BME280;7185;51.854;6.622;2023-12-14T10:38:02;101547.44;;;11.09;65.21
14204;BME280;7185;51.854;6.622;2023-12-14T10:40:35;101544.69;;;11.28;64.77
14204;BME280;7185;51.854;6.622;2023-12-14T10:43:11;101544.69;;;11.31;64.57
14204;BME280;7185;51.854;6.622;2023-12-14T10:45:46;101548.19;;;11.30;64.69
14204;BME280;7185;51.854;6.622;2023-12-14T10:48:19;101557.72;;;11.40;64.41
14204;BME280;7185;51.854;6.622;2023-12-14T10:50:53;101556.94;;;11.26;64.66
14204;BME280;7185;51.854;6.622;2023-12-14T10:53:28;101561.28;;;11.31;64.79
14204;BME280;7185;51.854;6.622;2023-12-14T10:56:01;101557.78;;;11.34;64.71
14204;BME280;7185;51.854;6.622;2023-12-14T10:58:47;101568.22;;;11.43;64.49
14204;BME280;7185;51.854;6.622;2023-12-14T11:01:22;101575.28;;;11.32;64.77
14204;BME280;7185;51.854;6.622;2023-12-14T11:03:55;101577.09;;;11.24;63.67
14204;BME280;7185;51.854;6.622;2023-12-14T11:06:29;101575.31;;;11.29;64.11
14204;BME280;7185;51.854;6.622;2023-12-14T11:09:03;101577.91;;;11.35;64.28
14204;BME280;7185;51.854;6.622;2023-12-14T11:11:43;101579.59;;;11.44;63.73
14204;BME280;7185;51.854;6.622;2023-12-14T11:14:19;101576.00;;;11.57;63.56
14204;BME280;7185;51.854;6.622;2023-12-14T11:16:54;101584.88;;;11.42;63.51
14204;BME280;7185;51.854;6.622;2023-12-14T11:19:28;101583.97;;;11.43;62.90
14204;BME280;7185;51.854;6.622;2023-12-14T11:22:22;101592.69;;;11.48;63.43
14204;BME280;7185;51.854;6.622;2023-12-14T11:24:55;101595.31;;;11.50;63.49
14204;BME280;7185;51.854;6.622;2023-12-14T11:27:28;101593.56;;;11.47;63.30
14204;BME280;7185;51.854;6.622;2023-12-14T11:30:02;101599.66;;;11.56;63.57
14204;BME280;7185;51.854;6.622;2023-12-14T11:32:39;101597.81;;;11.70;63.15
14204;BME280;7185;51.854;6.622;2023-12-14T11:35:10;101598.78;;;11.57;62.89
14204;BME280;7185;51.854;6.622;2023-12-14T11:37:43;101600.53;;;11.55;63.02
14204;BME280;7185;51.854;6.622;2023-12-14T11:40:15;101596.19;;;11.51;63.30
14204;BME280;7185;51.854;6.622;2023-12-14T11:42:57;101605.75;;;11.59;63.03
14204;BME280;7185;51.854;6.622;2023-12-14T11:45:30;101610.06;;;11.68;62.92
14204;BME280;7185;51.854;6.622;2023-12-14T11:48:04;101610.06;;;11.73;63.07
14204;BME280;7185;51.854;6.622;2023-12-14T11:50:37;101610.06;;;11.71;62.91
14204;BME280;7185;51.854;6.622;2023-12-14T11:53:09;101614.56;;;11.52;62.36
14204;BME280;7185;51.854;6.622;2023-12-14T11:55:42;101614.53;;;11.57;62.72
14204;BME280;7185;51.854;6.622;2023-12-14T11:58:15;101617.22;;;11.47;61.97
14204;BME280;7185;51.854;6.622;2023-12-14T12:00:47;101614.53;;;11.57;62.13
14204;BME280;7185;51.854;6.622;2023-12-14T12:03:20;101606.63;;;11.60;62.33
14204;BME280;7185;51.854;6.622;2023-12-14T12:05:52;101618.84;;;11.69;62.26
14204;BME280;7185;51.854;6.622;2023-12-14T12:08:24;101617.03;;;11.75;62.30
14204;BME280;7185;51.854;6.622;2023-12-14T12:10:57;101610.84;;;11.86;62.00
14204;BME280;7185;51.854;6.622;2023-12-14T12:13:29;101619.63;;;11.82;62.16
14204;BME280;7185;51.854;6.622;2023-12-14T12:16:01;101623.22;;;11.70;62.17
14204;BME280;7185;51.854;6.622;2023-12-14T12:18:34;101627.63;;;11.66;62.45
14204;BME280;7185;51.854;6.622;2023-12-14T12:21:06;101625.00;;;11.60;62.40
14204;BME280;7185;51.854;6.622;2023-12-14T12:23:39;101628.50;;;11.65;62.34
14204;BME280;7185;51.854;6.622;2023-12-14T12:26:12;101631.16;;;11.59;61.97
14204;BME280;7185;51.854;6.622;2023-12-14T12:28:44;101639.09;;;11.46;62.28
14204;BME280;7185;51.854;6.622;2023-12-14T12:31:18;101630.31;;;11.52;62.51
14204;BME280;7185;51.854;6.622;2023-12-14T12:33:51;101629.47;;;11.48;62.39
14204;BME280;7185;51.854;6.622;2023-12-14T12:36:23;101639.06;;;11.56;62.45
14204;BME280;7185;51.854;6.622;2023-12-14T12:38:55;101645.25;;;11.47;62.53
14204;BME280;7185;51.854;6.622;2023-12-14T12:41:26;101652.19;;;11.53;62.66
14204;BME280;7185;51.854;6.622;2023-12-14T12:43:58;101645.22;;;11.48;62.47
14204;BME280;7185;51.854;6.622;2023-12-14T12:46:37;101651.31;;;11.54;62.47
14204;BME280;7185;51.854;6.622;2023-12-14T12:49:10;101653.06;;;11.55;62.60
14204;BME280;7185;51.854;6.622;2023-12-14T12:51:42;101655.69;;;11.55;62.80
14204;BME280;7185;51.854;6.622;2023-12-14T12:54:14;101663.56;;;11.59;62.33
14204;BME280;7185;51.854;6.622;2023-12-14T12:56:46;101664.44;;;11.57;62.36
14204;BME280;7185;51.854;6.622;2023-12-14T12:59:18;101664.47;;;11.47;62.21
14204;BME280;7185;51.854;6.622;2023-12-14T13:01:50;101667.97;;;11.50;61.44
14204;BME280;7185;51.854;6.622;2023-12-14T13:04:24;101671.47;;;11.52;61.50
14204;BME280;7185;51.854;6.622;2023-12-14T13:06:56;101685.59;;;11.29;61.72
14204;BME280;7185;51.854;6.622;2023-12-14T13:09:29;101681.16;;;11.40;61.69
14204;BME280;7185;51.854;6.622;2023-12-14T13:12:01;101668.88;;;11.39;61.78
14204;BME280;7185;51.854;6.622;2023-12-14T13:14:34;101675.88;;;11.42;62.00
14204;BME280;7185;51.854;6.622;2023-12-14T13:17:06;101675.03;;;11.44;62.00
14204;BME280;7185;51.854;6.622;2023-12-14T13:19:39;101677.63;;;11.41;62.32
14204;BME280;7185;51.854;6.622;2023-12-14T13:22:11;101670.66;;;11.37;62.51
14204;BME280;7185;51.854;6.622;2023-12-14T13:24:43;101675.91;;;11.39;62.46
14204;BME280;7185;51.854;6.622;2023-12-14T13:27:14;101675.03;;;11.44;62.59